UNKL 291030Z 24005MPS 6000 -SHSN SCT031CB M06/M09 Q1024 R29/450242 NOSIG RMK QFE742
QNH:(hPa/inHg/mmHg)1024 / 30.24 / 768
QFE:(hPa/inHg/mmHg)989 / 29.21 / 742
Temperature-6
Dew Point-9
Visibility6000
WeatherLight Showers Snow
Cloud CoverSCT (3100);
Transition Altitude7500 ft.
Transition LevelFL90
SQUAWK